Time;durP1;ratioP1;P1;durP2;ratioP2;P2;SDS_P1;SDS_P2;PMS_P1;PMS_P2;Temp;Humidity;BMP_temperature;BMP_pressure;BME280_temperature;BME280_humidity;BME280_pressure;Samples;Min_cycle;Max_cycle;Signal;HPM_P1;HPM_P2
2023/06/10 00:01:57;;;;;;;9.43;4.65;;;19.40;70.90;;;;;;5056688;28;20489;-71
2023/06/10 00:04:23;;;;;;;9.77;4.80;;;19.30;71.00;;;;;;5072948;28;20452;-71
2023/06/10 00:06:49;;;;;;;8.57;4.25;;;19.20;71.20;;;;;;5072979;28;20041;-72
2023/06/10 00:09:15;;;;;;;7.03;4.30;;;19.20;71.30;;;;;;5056623;28;20087;-71
2023/06/10 00:11:41;;;;;;;9.88;4.90;;;19.20;71.50;;;;;;5072842;28;20048;-71
2023/06/10 00:14:07;;;;;;;11.05;5.05;;;19.10;71.70;;;;;;5072854;28;20074;-71
2023/06/10 00:16:34;;;;;;;9.02;4.53;;;19.10;71.80;;;;;;5056023;28;20127;-71
2023/06/10 00:19:01;;;;;;;7.95;4.30;;;19.10;71.90;;;;;;5072795;28;20081;-71
2023/06/10 00:21:37;;;;;;;7.45;4.63;;;19.00;72.70;;;;;;5072628;28;20448;-71
2023/06/10 00:24:06;;;;;;;10.30;4.72;;;19.00;72.10;;;;;;5072981;28;20084;-71
2023/06/10 00:26:32;;;;;;;9.43;4.53;;;18.90;72.20;;;;;;5072882;28;20514;-72
2023/06/10 00:28:59;;;;;;;10.52;4.88;;;18.90;72.40;;;;;;5072833;28;20091;-72
2023/06/10 00:31:26;;;;;;;10.13;4.68;;;18.90;72.40;;;;;;5072419;28;20493;-71
2023/06/10 00:33:52;;;;;;;8.27;4.68;;;18.80;72.50;;;;;;5072486;28;20051;-72
2023/06/10 00:36:18;;;;;;;10.43;4.82;;;18.80;72.50;;;;;;5072463;28;20048;-72
2023/06/10 00:38:43;;;;;;;7.93;4.40;;;18.80;72.60;;;;;;5072630;28;20037;-71
2023/06/10 00:41:09;;;;;;;11.73;5.05;;;18.70;72.60;;;;;;5073468;28;20040;-71
2023/06/10 00:43:35;;;;;;;8.98;4.70;;;18.70;73.40;;;;;;5072328;28;20051;-71
2023/06/10 00:46:01;;;;;;;10.85;5.00;;;18.70;72.90;;;;;;5072192;28;20045;-71
2023/06/10 00:48:27;;;;;;;10.82;4.72;;;18.70;72.80;;;;;;5072492;28;20033;-71
2023/06/10 00:50:53;;;;;;;7.60;4.78;;;18.70;73.30;;;;;;5055561;28;20044;-71
2023/06/10 00:53:20;;;;;;;9.15;4.35;;;18.60;72.90;;;;;;5072351;28;20036;-72
2023/06/10 00:55:46;;;;;;;9.43;4.90;;;18.60;73.00;;;;;;5072131;28;20417;-72
2023/06/10 00:58:12;;;;;;;10.35;4.78;;;18.60;73.10;;;;;;5072096;28;20512;-72
2023/06/10 01:00:38;;;;;;;9.77;5.10;;;18.50;73.20;;;;;;5072034;28;20393;-72
2023/06/10 01:03:07;;;;;;;8.85;4.35;;;18.50;73.00;;;;;;5072216;28;20047;-72
2023/06/10 01:05:37;;;;;;;8.55;4.68;;;18.40;73.20;;;;;;5072184;28;20140;-72
2023/06/10 01:08:45;;;;;;;10.63;4.80;;;18.40;73.30;;;;;;5071970;28;20493;-72
2023/06/10 01:11:20;;;;;;;9.95;4.78;;;18.40;73.40;;;;;;5071876;28;20039;-71
2023/06/10 01:13:51;;;;;;;9.55;4.82;;;18.30;73.60;;;;;;5072209;28;20511;-71
2023/06/10 01:16:17;;;;;;;8.00;4.60;;;18.20;73.60;;;;;;5072163;28;20067;-71
2023/06/10 01:18:44;;;;;;;9.23;4.80;;;18.20;73.60;;;;;;5071834;28;20497;-71
2023/06/10 01:21:13;;;;;;;8.52;5.13;;;18.20;73.70;;;;;;5071779;28;20048;-71
2023/06/10 01:23:39;;;;;;;7.25;4.95;;;18.20;73.70;;;;;;5072069;28;20044;-71
2023/06/10 01:26:10;;;;;;;10.48;4.68;;;18.10;73.80;;;;;;5071659;28;20124;-71
2023/06/10 01:28:57;;;;;;;9.88;4.90;;;18.10;73.80;;;;;;5071513;28;20041;-71
2023/06/10 01:31:33;;;;;;;9.48;4.80;;;18.10;73.80;;;;;;5054989;28;20037;-71
2023/06/10 01:34:02;;;;;;;9.07;4.63;;;18.10;73.90;;;;;;5072040;28;20079;-71
2023/06/10 01:36:28;;;;;;;8.50;4.70;;;18.00;73.70;;;;;;5054961;28;20558;-72
2023/06/10 01:38:56;;;;;;;9.35;4.55;;;18.00;73.70;;;;;;5071604;28;20037;-71
2023/06/10 01:41:22;;;;;;;9.02;4.75;;;18.00;73.90;;;;;;5071834;28;20045;-71
2023/06/10 01:43:48;;;;;;;10.10;4.65;;;18.00;74.00;;;;;;5071598;28;20132;-72
2023/06/10 01:46:15;;;;;;;10.65;5.22;;;17.90;73.90;;;;;;5071520;28;20044;-71
2023/06/10 01:48:42;;;;;;;8.80;4.57;;;17.90;74.00;;;;;;5071546;28;20078;-72
2023/06/10 01:51:07;;;;;;;9.07;4.88;;;17.90;74.00;;;;;;5071562;28;20123;-71
2023/06/10 01:53:33;;;;;;;8.68;4.95;;;17.80;74.00;;;;;;5071760;28;20064;-71
2023/06/10 01:55:59;;;;;;;11.05;4.85;;;17.80;74.20;;;;;;5071521;28;20501;-71
2023/06/10 01:58:25;;;;;;;8.25;4.10;;;17.70;74.20;;;;;;5071482;28;20040;-71
2023/06/10 02:00:51;;;;;;;11.63;5.30;;;17.70;74.30;;;;;;5071404;28;20089;-71
2023/06/10 02:03:16;;;;;;;11.18;4.65;;;17.70;74.30;;;;;;5071266;28;20120;-71
2023/06/10 02:05:42;;;;;;;9.95;4.45;;;17.70;74.40;;;;;;5054728;28;20071;-72
2023/06/10 02:08:08;;;;;;;11.35;4.95;;;17.60;74.40;;;;;;5071372;28;20040;-72
2023/06/10 02:10:34;;;;;;;7.60;4.55;;;17.60;74.40;;;;;;5071371;28;20044;-71
2023/06/10 02:12:59;;;;;;;9.15;4.55;;;17.60;74.40;;;;;;5072559;28;20037;-71
2023/06/10 02:15:25;;;;;;;10.73;5.05;;;17.50;74.50;;;;;;5071591;28;20040;-71
2023/06/10 02:17:52;;;;;;;7.05;4.05;;;17.50;74.70;;;;;;5071302;28;20394;-72
2023/06/10 02:20:18;;;;;;;8.55;4.85;;;17.50;74.70;;;;;;5071316;28;20072;-72
2023/06/10 02:22:43;;;;;;;11.18;4.53;;;17.50;74.70;;;;;;5071542;28;20110;-71
2023/06/10 02:25:09;;;;;;;11.77;4.65;;;17.40;74.80;;;;;;5054478;28;20036;-72
2023/06/10 02:27:35;;;;;;;10.27;5.00;;;17.40;74.90;;;;;;5071473;28;20408;-72
2023/06/10 02:30:01;;;;;;;10.80;5.30;;;17.30;74.90;;;;;;5054500;28;20481;-71
2023/06/10 02:32:26;;;;;;;11.20;5.13;;;17.30;75.10;;;;;;5071341;28;20040;-72
2023/06/10 02:34:52;;;;;;;9.25;4.47;;;17.20;75.20;;;;;;5071124;28;20044;-72
2023/06/10 02:37:18;;;;;;;10.98;4.50;;;17.20;75.40;;;;;;5054729;28;20044;-72
2023/06/10 02:39:43;;;;;;;10.07;5.38;;;17.10;75.50;;;;;;5071077;28;20500;-72
2023/06/10 02:42:10;;;;;;;13.25;5.00;;;17.10;75.70;;;;;;5073447;28;20080;-71
2023/06/10 02:44:36;;;;;;;10.27;4.82;;;17.10;75.90;;;;;;5075410;28;20076;-72
2023/06/10 02:47:01;;;;;;;10.70;5.10;;;17.00;76.00;;;;;;5074544;28;20072;-72
2023/06/10 02:49:29;;;;;;;9.90;5.13;;;17.00;76.20;;;;;;5074542;28;20032;-72
2023/06/10 02:51:56;;;;;;;11.60;4.72;;;17.00;76.30;;;;;;5058002;28;20040;-71
2023/06/10 02:54:25;;;;;;;7.75;4.45;;;16.90;76.60;;;;;;5057729;28;20041;-71
2023/06/10 02:56:52;;;;;;;9.45;4.50;;;16.90;76.80;;;;;;5074665;28;20076;-71
2023/06/10 02:59:18;;;;;;;12.05;4.55;;;16.90;76.90;;;;;;5074316;28;20044;-71
2023/06/10 03:01:44;;;;;;;7.65;4.75;;;16.80;77.10;;;;;;5074249;28;20044;-71
2023/06/10 03:04:13;;;;;;;10.65;4.53;;;16.80;77.10;;;;;;5057374;28;20045;-72
2023/06/10 03:06:40;;;;;;;7.72;4.30;;;16.70;77.30;;;;;;5074237;28;20044;-72
2023/06/10 03:09:09;;;;;;;7.38;5.03;;;16.80;77.70;;;;;;5074400;28;20052;-72
2023/06/10 03:11:35;;;;;;;15.20;5.30;;;16.70;77.80;;;;;;5074332;28;20111;-72
2023/06/10 03:14:01;;;;;;;10.52;4.82;;;16.70;78.10;;;;;;5074303;28;20036;-72
2023/06/10 03:16:27;;;;;;;13.25;4.78;;;16.70;78.20;;;;;;5074047;28;20106;-71
2023/06/10 03:18:53;;;;;;;9.00;4.55;;;16.60;78.30;;;;;;5074299;28;20070;-71
2023/06/10 03:21:18;;;;;;;9.95;4.60;;;16.60;78.40;;;;;;5073875;28;20408;-70
2023/06/10 03:23:44;;;;;;;8.73;4.50;;;16.50;78.70;;;;;;5074186;28;20044;-71
2023/06/10 03:26:12;;;;;;;9.38;4.57;;;16.50;78.90;;;;;;5073734;28;20076;-71
2023/06/10 03:28:37;;;;;;;8.73;4.40;;;16.50;79.10;;;;;;5073750;28;20048;-71
2023/06/10 03:31:03;;;;;;;10.38;4.88;;;16.40;79.40;;;;;;5073772;28;20062;-72
2023/06/10 03:33:29;;;;;;;10.70;5.30;;;16.40;79.70;;;;;;5073614;28;20036;-72
2023/06/10 03:35:55;;;;;;;9.93;4.70;;;16.40;79.90;;;;;;5073668;28;20078;-72
2023/06/10 03:38:21;;;;;;;10.40;4.63;;;16.30;80.10;;;;;;5057217;28;20063;-71
2023/06/10 03:40:47;;;;;;;9.48;4.80;;;16.30;80.40;;;;;;5073611;28;20044;-71
2023/06/10 03:43:13;;;;;;;10.57;4.90;;;16.30;80.70;;;;;;5073707;28;20099;-71
2023/06/10 03:45:38;;;;;;;6.85;4.82;;;16.20;80.90;;;;;;5073370;28;20504;-72
2023/06/10 03:48:06;;;;;;;8.90;4.95;;;16.20;81.00;;;;;;5073395;28;20032;-72
2023/06/10 03:50:31;;;;;;;6.70;4.47;;;16.20;81.50;;;;;;5056719;28;20047;-72
2023/06/10 03:52:58;;;;;;;9.18;4.75;;;16.20;81.80;;;;;;5072811;28;20037;-71
2023/06/10 03:55:23;;;;;;;8.32;4.63;;;16.20;82.00;;;;;;5073259;28;20508;-72
2023/06/10 03:57:49;;;;;;;7.93;4.93;;;16.20;82.40;;;;;;5073480;28;20076;-72
2023/06/10 04:00:17;;;;;;;13.18;5.10;;;16.10;82.70;;;;;;5073452;28;20082;-71
2023/06/10 04:02:47;;;;;;;8.07;4.10;;;16.10;82.90;;;;;;5056869;28;20423;-71
2023/06/10 04:05:13;;;;;;;10.90;4.97;;;16.10;83.50;;;;;;5056275;28;20036;-71
2023/06/10 04:07:40;;;;;;;11.40;4.88;;;16.10;83.80;;;;;;5073014;28;20040;-71
2023/06/10 04:10:07;;;;;;;10.00;4.95;;;16.10;84.10;;;;;;5073265;28;20036;-72
2023/06/10 04:12:33;;;;;;;8.38;5.00;;;16.10;84.40;;;;;;5072861;28;20120;-72
2023/06/10 04:14:59;;;;;;;10.00;4.75;;;16.10;84.70;;;;;;5073112;28;20123;-71
2023/06/10 04:17:25;;;;;;;8.60;4.57;;;16.10;84.90;;;;;;5056157;28;20408;-71
2023/06/10 04:19:51;;;;;;;9.60;4.72;;;16.10;85.20;;;;;;5072826;28;20493;-72
2023/06/10 04:22:17;;;;;;;6.68;4.07;;;16.10;85.40;;;;;;5072692;28;20040;-71
2023/06/10 04:24:43;;;;;;;10.05;4.40;;;16.00;85.90;;;;;;5072995;28;20044;-72
2023/06/10 04:27:09;;;;;;;9.25;4.93;;;16.10;86.30;;;;;;5072641;28;20135;-72
2023/06/10 04:29:35;;;;;;;12.50;5.38;;;16.10;86.70;;;;;;5072832;28;20045;-72
2023/06/10 04:32:01;;;;;;;9.85;4.50;;;16.10;87.00;;;;;;5072490;28;20033;-71
2023/06/10 04:34:27;;;;;;;12.30;4.95;;;16.10;87.70;;;;;;5072531;28;20127;-71
2023/06/10 04:36:53;;;;;;;15.02;4.72;;;16.10;88.10;;;;;;5072470;28;20076;-71
2023/06/10 04:39:19;;;;;;;13.52;5.18;;;16.10;88.70;;;;;;5056226;28;20037;-71
2023/06/10 04:41:45;;;;;;;10.38;4.80;;;16.10;89.00;;;;;;5072509;28;20048;-71
2023/06/10 04:44:12;;;;;;;11.50;5.13;;;16.10;89.40;;;;;;5072335;28;20040;-71
2023/06/10 04:46:38;;;;;;;13.18;5.20;;;16.10;90.00;;;;;;5072326;28;20083;-71
2023/06/10 04:49:04;;;;;;;10.13;4.63;;;16.10;90.60;;;;;;5055610;28;20072;-72
2023/06/10 04:51:31;;;;;;;10.07;4.90;;;16.20;90.40;;;;;;5072182;28;20546;-71
2023/06/10 04:53:57;;;;;;;10.00;5.20;;;16.20;90.60;;;;;;5055503;28;20040;-72
2023/06/10 04:56:23;;;;;;;12.00;5.45;;;16.20;90.80;;;;;;5055489;28;20047;-72
2023/06/10 04:58:49;;;;;;;11.93;5.38;;;16.30;91.10;;;;;;5055472;28;20556;-71
2023/06/10 05:01:15;;;;;;;11.32;5.15;;;16.30;91.20;;;;;;5055527;28;20133;-71
2023/06/10 05:03:41;;;;;;;11.60;4.97;;;16.30;91.40;;;;;;5071461;28;20397;-71
2023/06/10 05:06:06;;;;;;;11.38;5.40;;;16.30;91.60;;;;;;5072014;28;20489;-71
2023/06/10 05:08:33;;;;;;;9.00;5.03;;;16.30;91.80;;;;;;5072253;28;20076;-71
2023/06/10 05:10:58;;;;;;;11.52;5.10;;;16.30;92.20;;;;;;5071957;28;20028;-71
2023/06/10 05:13:24;;;;;;;10.32;5.03;;;16.30;92.30;;;;;;5072148;28;20044;-71
2023/06/10 05:15:49;;;;;;;8.50;4.60;;;16.30;92.60;;;;;;5071932;28;20041;-71
2023/06/10 05:18:15;;;;;;;12.10;4.88;;;16.30;92.90;;;;;;5055213;28;20040;-72
2023/06/10 05:20:41;;;;;;;9.55;4.47;;;16.30;93.10;;;;;;5055145;28;20041;-71
2023/06/10 05:23:07;;;;;;;13.15;4.97;;;16.30;93.40;;;;;;5072720;28;20048;-71
2023/06/10 05:25:32;;;;;;;11.27;4.93;;;16.40;93.60;;;;;;5071733;28;20420;-72
2023/06/10 05:27:58;;;;;;;13.32;5.75;;;16.40;93.90;;;;;;5071758;28;20036;-72
2023/06/10 05:30:25;;;;;;;10.75;5.30;;;16.50;94.00;;;;;;5072007;28;20086;-72
2023/06/10 05:32:51;;;;;;;8.18;4.75;;;16.50;94.40;;;;;;5071947;28;20036;-71
2023/06/10 05:35:17;;;;;;;9.43;4.88;;;16.50;94.30;;;;;;5055010;28;20520;-71
2023/06/10 05:37:44;;;;;;;12.63;5.03;;;16.60;94.40;;;;;;5071691;28;20123;-72
2023/06/10 05:40:10;;;;;;;10.70;5.65;;;16.70;94.50;;;;;;5071935;28;20091;-72
2023/06/10 05:42:35;;;;;;;10.32;4.38;;;16.70;94.80;;;;;;5071834;28;20374;-71
2023/06/10 05:45:02;;;;;;;11.25;5.07;;;16.80;95.00;;;;;;5071582;28;20035;-72
2023/06/10 05:47:27;;;;;;;11.32;5.03;;;16.90;94.90;;;;;;5071516;28;20049;-72
2023/06/10 05:49:53;;;;;;;11.60;5.50;;;16.90;95.00;;;;;;5071592;28;20040;-71
2023/06/10 05:52:19;;;;;;;8.20;4.82;;;17.00;95.10;;;;;;5071482;28;20041;-71
2023/06/10 05:54:44;;;;;;;12.10;5.22;;;17.10;95.60;;;;;;5071787;28;20055;-72
2023/06/10 05:57:10;;;;;;;12.65;4.40;;;17.10;95.40;;;;;;5054817;28;20515;-72
2023/06/10 05:59:36;;;;;;;12.60;4.47;;;17.30;95.30;;;;;;5071540;28;20036;-72
2023/06/10 06:02:02;;;;;;;11.15;5.25;;;17.30;95.10;;;;;;5055027;28;20106;-71
2023/06/10 06:04:27;;;;;;;11.93;4.80;;;17.40;95.00;;;;;;5071328;28;20463;-71
2023/06/10 06:06:53;;;;;;;8.95;4.97;;;17.40;95.00;;;;;;5071687;28;20041;-71
2023/06/10 06:09:18;;;;;;;11.20;5.07;;;17.50;95.00;;;;;;5071700;28;20107;-71
2023/06/10 06:11:44;;;;;;;12.27;5.30;;;17.60;95.00;;;;;;5071299;28;20044;-71
2023/06/10 06:14:10;;;;;;;10.20;4.55;;;17.70;94.90;;;;;;5071636;28;20136;-71
2023/06/10 06:16:35;;;;;;;10.18;4.60;;;17.70;94.80;;;;;;5074635;28;20090;-71
2023/06/10 06:19:01;;;;;;;13.27;5.30;;;17.90;94.80;;;;;;5058480;28;20098;-71
2023/06/10 06:21:26;;;;;;;13.13;4.85;;;17.90;94.70;;;;;;5075005;28;20047;-71
2023/06/10 06:23:52;;;;;;;12.77;5.13;;;18.00;94.30;;;;;;5075292;28;20032;-71
2023/06/10 06:26:18;;;;;;;12.05;4.90;;;18.00;94.20;;;;;;5074911;28;20032;-71
2023/06/10 06:28:43;;;;;;;10.00;4.75;;;18.00;94.20;;;;;;5058816;28;20072;-72
2023/06/10 06:31:09;;;;;;;10.52;4.30;;;18.10;93.80;;;;;;5075419;28;20563;-71
2023/06/10 06:33:35;;;;;;;8.93;4.53;;;18.10;93.70;;;;;;5074859;28;20041;-71
2023/06/10 06:36:00;;;;;;;7.63;4.15;;;18.20;93.60;;;;;;5075096;28;20051;-71
2023/06/10 06:38:26;;;;;;;16.38;5.07;;;18.20;93.70;;;;;;5075019;28;20131;-71
2023/06/10 06:40:52;;;;;;;13.57;4.90;;;18.30;93.80;;;;;;5074736;28;20067;-71
2023/06/10 06:43:18;;;;;;;11.23;5.00;;;18.40;93.70;;;;;;5074581;28;20119;-71
2023/06/10 06:45:45;;;;;;;10.88;4.60;;;18.40;93.60;;;;;;5074779;28;20048;-71
2023/06/10 06:48:11;;;;;;;11.70;4.93;;;18.50;93.40;;;;;;5074599;28;20083;-71
2023/06/10 06:50:37;;;;;;;10.88;4.57;;;18.60;93.20;;;;;;5074510;28;20378;-71
2023/06/10 06:53:03;;;;;;;13.18;4.68;;;18.70;93.20;;;;;;5074696;28;20036;-71
2023/06/10 06:55:29;;;;;;;12.10;4.38;;;18.80;93.10;;;;;;5074726;28;20094;-72
2023/06/10 06:57:55;;;;;;;11.98;5.20;;;18.80;93.10;;;;;;5074449;28;20482;-72
2023/06/10 07:00:21;;;;;;;11.32;5.10;;;18.90;92.80;;;;;;5074367;28;20034;-72
2023/06/10 07:02:47;;;;;;;7.47;4.05;;;19.00;92.60;;;;;;5074288;28;20127;-72
2023/06/10 07:05:12;;;;;;;9.30;4.22;;;19.10;92.50;;;;;;5074166;28;20032;-72
2023/06/10 07:07:38;;;;;;;14.43;4.78;;;19.20;92.40;;;;;;5057527;28;20129;-72
2023/06/10 07:10:04;;;;;;;13.82;4.90;;;19.30;92.30;;;;;;5074241;28;20039;-72
2023/06/10 07:12:30;;;;;;;14.25;4.72;;;19.40;92.10;;;;;;5074311;28;20041;-72
2023/06/10 07:14:55;;;;;;;15.07;4.95;;;19.40;92.10;;;;;;5074090;28;20500;-72
2023/06/10 07:17:21;;;;;;;12.55;4.63;;;19.50;91.60;;;;;;5057327;28;20040;-72
2023/06/10 07:19:46;;;;;;;11.90;4.90;;;19.50;91.50;;;;;;5074050;28;20040;-72
2023/06/10 07:22:12;;;;;;;10.90;4.68;;;19.60;91.20;;;;;;5057224;28;20049;-71
2023/06/10 07:24:38;;;;;;;10.55;4.97;;;19.70;91.30;;;;;;5073897;28;20032;-71
2023/06/10 07:27:04;;;;;;;11.13;4.97;;;19.80;91.20;;;;;;5056311;28;20041;-71
2023/06/10 07:29:29;;;;;;;8.50;4.95;;;19.90;91.00;;;;;;5057173;28;20127;-71
2023/06/10 07:31:55;;;;;;;9.20;5.00;;;20.00;91.00;;;;;;5073690;28;20090;-71
2023/06/10 07:34:20;;;;;;;8.98;4.40;;;20.10;90.80;;;;;;5073992;28;20076;-71
2023/06/10 07:36:46;;;;;;;8.95;4.70;;;20.20;90.80;;;;;;5073658;28;20454;-71
2023/06/10 07:39:11;;;;;;;10.93;4.75;;;20.40;90.30;;;;;;5056892;28;20040;-71
2023/06/10 07:41:37;;;;;;;9.57;5.32;;;20.40;90.00;;;;;;5073509;28;20060;-71
2023/06/10 07:44:03;;;;;;;11.07;5.43;;;20.60;90.00;;;;;;5073808;28;20052;-71
2023/06/10 07:46:28;;;;;;;11.07;5.28;;;20.60;89.20;;;;;;5073373;28;20051;-71
2023/06/10 07:48:54;;;;;;;12.93;5.53;;;20.70;89.50;;;;;;5073712;28;20060;-71
2023/06/10 07:51:21;;;;;;;11.18;5.68;;;20.70;89.00;;;;;;5073586;28;20036;-71
2023/06/10 07:53:47;;;;;;;11.30;5.30;;;20.90;88.70;;;;;;5056717;28;20068;-71
2023/06/10 07:56:13;;;;;;;8.80;4.82;;;21.00;87.20;;;;;;5073555;28;20091;-71
2023/06/10 07:58:38;;;;;;;14.02;5.47;;;21.10;86.30;;;;;;5073219;28;20428;-71
2023/06/10 08:01:04;;;;;;;11.25;4.75;;;21.20;84.90;;;;;;5073229;28;20131;-71
2023/06/10 08:03:29;;;;;;;15.02;6.10;;;21.30;84.60;;;;;;5073230;28;20037;-71
2023/06/10 08:05:55;;;;;;;9.30;5.15;;;21.50;84.40;;;;;;5073059;28;20471;-72
2023/06/10 08:08:21;;;;;;;8.63;3.83;;;21.60;83.60;;;;;;5073266;28;20040;-71
2023/06/10 08:10:46;;;;;;;9.10;4.70;;;21.70;82.20;;;;;;5073287;28;20036;-71
2023/06/10 08:13:12;;;;;;;8.38;4.60;;;21.80;80.70;;;;;;5073130;28;20366;-71
2023/06/10 08:15:37;;;;;;;9.30;5.07;;;21.80;80.00;;;;;;5072854;28;20037;-71
2023/06/10 08:18:03;;;;;;;8.10;4.38;;;22.00;80.10;;;;;;5072852;28;20040;-71
2023/06/10 08:20:29;;;;;;;7.72;4.25;;;22.10;79.90;;;;;;5072794;28;20067;-71
2023/06/10 08:22:55;;;;;;;10.77;4.30;;;22.10;78.80;;;;;;5072677;28;20096;-71
2023/06/10 08:25:22;;;;;;;9.23;4.53;;;22.30;78.10;;;;;;5072647;28;20040;-72
2023/06/10 08:27:47;;;;;;;9.07;4.05;;;22.40;77.20;;;;;;5055974;28;20145;-72
2023/06/10 08:30:14;;;;;;;10.20;4.28;;;22.60;76.60;;;;;;5072841;28;20075;-71
2023/06/10 08:32:39;;;;;;;8.77;3.70;;;22.70;76.30;;;;;;5072704;28;20043;-71
2023/06/10 08:35:05;;;;;;;11.48;4.55;;;22.90;76.50;;;;;;5072802;28;20409;-72
2023/06/10 08:37:31;;;;;;;10.40;4.45;;;23.00;75.80;;;;;;5072456;28;20037;-72
2023/06/10 08:39:56;;;;;;;6.28;3.80;;;23.10;75.10;;;;;;5072444;28;20089;-72
2023/06/10 08:42:42;;;;;;;9.23;4.05;;;23.30;73.90;;;;;;5072315;28;20043;-71
2023/06/10 08:45:12;;;;;;;8.98;4.10;;;23.40;73.30;;;;;;5072340;28;20036;-71
2023/06/10 08:47:42;;;;;;;9.27;3.78;;;23.50;72.30;;;;;;5055534;28;20074;-72
2023/06/10 08:50:08;;;;;;;8.43;4.13;;;23.60;70.80;;;;;;5073329;28;20119;-72
2023/06/10 08:52:40;;;;;;;6.38;3.92;;;23.80;71.00;;;;;;5072179;28;20070;-71
2023/06/10 08:55:19;;;;;;;7.57;3.42;;;23.90;71.00;;;;;;5072181;28;20115;-71
2023/06/10 08:57:47;;;;;;;10.80;4.07;;;24.00;70.30;;;;;;5072258;28;20051;-71
2023/06/10 09:00:14;;;;;;;10.15;3.90;;;24.20;68.90;;;;;;5055515;28;20505;-72
2023/06/10 09:02:40;;;;;;;8.98;4.15;;;24.40;68.50;;;;;;5071935;28;20115;-72
2023/06/10 09:05:07;;;;;;;7.60;3.75;;;24.40;67.50;;;;;;5072254;28;20048;-72
2023/06/10 09:07:36;;;;;;;9.23;3.97;;;24.50;66.60;;;;;;5072298;28;20123;-72
2023/06/10 09:10:03;;;;;;;9.63;3.75;;;24.70;66.60;;;;;;5071970;28;20044;-71
2023/06/10 09:12:29;;;;;;;6.10;3.80;;;24.80;65.80;;;;;;5071895;28;20124;-71
2023/06/10 09:14:55;;;;;;;6.97;3.65;;;24.90;64.90;;;;;;5071935;28;20116;-71
2023/06/10 09:17:21;;;;;;;6.80;3.58;;;25.00;63.70;;;;;;5071931;28;20048;-71
2023/06/10 09:19:48;;;;;;;5.32;2.88;;;25.10;64.40;;;;;;5071869;28;20036;-71
2023/06/10 09:22:14;;;;;;;6.18;3.45;;;25.20;63.00;;;;;;5071787;28;20409;-71
2023/06/10 09:24:41;;;;;;;8.45;3.92;;;25.30;61.80;;;;;;5072114;28;20040;-72
2023/06/10 09:27:08;;;;;;;8.30;4.00;;;25.40;62.00;;;;;;5071811;28;20494;-72
2023/06/10 09:29:54;;;;;;;6.95;3.13;;;25.40;61.70;;;;;;5055362;28;20086;-71
2023/06/10 09:32:20;;;;;;;8.70;3.70;;;25.60;61.90;;;;;;5071988;28;20044;-71
2023/06/10 09:34:47;;;;;;;8.18;3.55;;;25.60;60.70;;;;;;5071797;28;20490;-72
2023/06/10 09:37:19;;;;;;;7.63;3.30;;;25.70;59.90;;;;;;5071705;28;20059;-71
2023/06/10 09:39:45;;;;;;;5.63;3.08;;;25.80;59.50;;;;;;5071825;28;20079;-71
2023/06/10 09:42:20;;;;;;;7.50;3.30;;;26.00;57.90;;;;;;5054906;28;20090;-71
2023/06/10 09:44:51;;;;;;;8.23;3.47;;;26.10;57.00;;;;;;5072921;28;20123;-71
2023/06/10 09:47:23;;;;;;;6.65;3.20;;;26.20;57.20;;;;;;5071647;28;20040;-71
2023/06/10 09:49:54;;;;;;;9.20;3.45;;;26.30;56.50;;;;;;5072170;28;20040;-71
2023/06/10 09:52:28;;;;;;;6.50;3.03;;;26.40;56.10;;;;;;5075658;28;20041;-71
2023/06/10 09:54:58;;;;;;;8.02;3.42;;;26.50;56.10;;;;;;5075651;28;20112;-71
2023/06/10 09:57:23;;;;;;;6.18;3.03;;;26.50;55.20;;;;;;5058904;28;20079;-71
2023/06/10 09:59:54;;;;;;;5.93;2.88;;;26.70;55.80;;;;;;5075821;28;20072;-71
2023/06/10 10:02:19;;;;;;;5.13;2.90;;;26.80;52.10;;;;;;5075422;28;20094;-72
2023/06/10 10:04:45;;;;;;;9.73;2.85;;;26.90;52.60;;;;;;5075323;28;20041;-72
2023/06/10 10:07:12;;;;;;;8.30;3.17;;;27.00;51.30;;;;;;5075375;28;20040;-72
2023/06/10 10:09:38;;;;;;;4.32;2.60;;;27.10;51.30;;;;;;5075357;28;20048;-72
2023/06/10 10:12:13;;;;;;;6.90;3.45;;;27.20;51.00;;;;;;5075242;28;20044;-71
2023/06/10 10:14:45;;;;;;;7.43;3.28;;;27.20;51.80;;;;;;5075262;28;20036;-72
2023/06/10 10:17:13;;;;;;;6.43;3.00;;;27.30;51.50;;;;;;5076095;28;20040;-72
2023/06/10 10:19:53;;;;;;;7.18;3.10;;;27.40;51.90;;;;;;5075042;28;20083;-71
2023/06/10 10:22:25;;;;;;;6.32;2.70;;;27.60;53.20;;;;;;5075297;28;20044;-71
2023/06/10 10:24:55;;;;;;;7.28;3.10;;;27.80;52.10;;;;;;5075120;28;20493;-72
2023/06/10 10:27:45;;;;;;;4.38;2.67;;;27.90;50.50;;;;;;5074961;28;20040;-72
2023/06/10 10:30:14;;;;;;;6.47;2.88;;;28.00;50.50;;;;;;5058329;28;20036;-71
2023/06/10 10:32:50;;;;;;;4.72;2.85;;;28.10;49.50;;;;;;5058198;28;20409;-71
2023/06/10 10:35:18;;;;;;;5.28;2.75;;;28.20;48.70;;;;;;5058492;28;20127;-71
2023/06/10 10:37:45;;;;;;;6.53;2.78;;;28.30;49.20;;;;;;5074793;28;20052;-71
2023/06/10 10:40:12;;;;;;;5.25;2.65;;;28.40;48.40;;;;;;5074772;28;20050;-71
2023/06/10 10:42:38;;;;;;;5.82;3.00;;;28.40;48.10;;;;;;5058074;28;20505;-72
2023/06/10 10:45:06;;;;;;;7.10;3.05;;;28.60;48.10;;;;;;5074900;28;20114;-72
2023/06/10 10:47:35;;;;;;;6.22;2.88;;;28.70;48.80;;;;;;5074558;28;20080;-72
2023/06/10 10:50:01;;;;;;;5.57;2.75;;;28.80;48.90;;;;;;5075852;28;20397;-72
2023/06/10 10:52:45;;;;;;;6.95;2.70;;;28.90;49.50;;;;;;5074433;28;20041;-71
2023/06/10 10:55:12;;;;;;;6.85;2.83;;;28.90;50.00;;;;;;5074515;28;20050;-71
2023/06/10 10:57:39;;;;;;;6.03;2.70;;;29.10;47.80;;;;;;5074417;28;20044;-71
2023/06/10 11:00:06;;;;;;;4.22;2.50;;;29.30;48.30;;;;;;5074397;28;20041;-72
2023/06/10 11:02:40;;;;;;;6.97;2.67;;;29.40;48.10;;;;;;5072843;28;20055;-71
2023/06/10 11:05:07;;;;;;;6.53;2.70;;;29.60;48.20;;;;;;5074252;28;20048;-72
2023/06/10 11:07:34;;;;;;;7.00;3.03;;;29.70;48.00;;;;;;5074176;28;20044;-72
2023/06/10 11:10:10;;;;;;;4.00;2.58;;;29.90;48.30;;;;;;5075751;28;20048;-71
2023/06/10 11:12:45;;;;;;;9.25;2.83;;;30.00;47.10;;;;;;5074132;28;20036;-71
2023/06/10 11:15:31;;;;;;;4.47;2.60;;;30.00;48.10;;;;;;5074125;28;20040;-72
2023/06/10 11:18:26;;;;;;;5.60;2.50;;;30.10;45.10;;;;;;5073969;28;20055;-72
2023/06/10 11:21:00;;;;;;;7.43;2.80;;;30.30;46.20;;;;;;5074043;28;20037;-71
2023/06/10 11:23:29;;;;;;;5.55;2.40;;;30.40;45.10;;;;;;5073883;28;20503;-71
2023/06/10 11:26:34;;;;;;;3.20;2.17;;;30.50;44.40;;;;;;5057138;28;20068;-72
2023/06/10 11:29:00;;;;;;;4.45;2.50;;;30.60;45.10;;;;;;5073881;28;20041;-72
2023/06/10 11:31:28;;;;;;;6.40;2.85;;;30.60;43.40;;;;;;5073718;28;20090;-72
2023/06/10 11:33:54;;;;;;;6.32;2.40;;;30.70;44.30;;;;;;5074065;28;20047;-72
2023/06/10 11:36:21;;;;;;;6.18;2.33;;;30.80;43.60;;;;;;5057033;28;20040;-72
2023/06/10 11:38:46;;;;;;;4.65;2.47;;;30.80;42.50;;;;;;5073659;28;20068;-72
2023/06/10 11:41:13;;;;;;;8.25;1.92;;;30.90;42.60;;;;;;5056840;28;20079;-71
2023/06/10 11:43:46;;;;;;;4.80;2.00;;;31.00;42.00;;;;;;5057217;28;20550;-71
2023/06/10 11:46:12;;;;;;;5.13;2.50;;;31.10;42.90;;;;;;5056806;28;20040;-72
2023/06/10 11:48:37;;;;;;;6.78;2.72;;;31.10;42.20;;;;;;5073737;28;20496;-72
2023/06/10 11:51:07;;;;;;;6.72;2.30;;;31.20;42.80;;;;;;5073438;28;20047;-72
2023/06/10 11:53:33;;;;;;;8.32;2.92;;;31.20;44.30;;;;;;5073328;28;20082;-72
2023/06/10 11:55:59;;;;;;;6.82;2.70;;;31.30;43.70;;;;;;5073392;28;20055;-72
2023/06/10 11:58:25;;;;;;;6.13;2.35;;;31.40;44.20;;;;;;5073314;28;20040;-72
2023/06/10 12:00:58;;;;;;;5.70;2.22;;;31.40;43.10;;;;;;5073514;28;20040;-72
2023/06/10 12:03:25;;;;;;;7.25;2.17;;;31.40;41.30;;;;;;5073260;28;20075;-72
2023/06/10 12:06:03;;;;;;;4.05;1.92;;;31.40;40.10;;;;;;5073122;28;20101;-72
2023/06/10 12:08:29;;;;;;;5.38;2.10;;;31.40;39.90;;;;;;5073038;28;20047;-72
2023/06/10 12:10:56;;;;;;;7.07;2.13;;;31.50;40.90;;;;;;5074586;28;20116;-72
2023/06/10 12:13:23;;;;;;;5.05;2.20;;;31.60;42.10;;;;;;5072517;28;20400;-72
2023/06/10 12:15:49;;;;;;;5.07;2.50;;;31.70;42.10;;;;;;5073198;28;20404;-72
2023/06/10 12:18:19;;;;;;;7.18;2.20;;;31.70;42.10;;;;;;5072835;28;20486;-71
2023/06/10 12:20:46;;;;;;;5.07;2.30;;;31.90;41.70;;;;;;5072826;28;20115;-72
2023/06/10 12:23:12;;;;;;;4.72;2.05;;;31.90;40.90;;;;;;5072754;28;20036;-72
2023/06/10 12:25:39;;;;;;;4.25;1.80;;;32.00;41.60;;;;;;5072626;28;20079;-72
2023/06/10 12:28:06;;;;;;;9.60;2.58;;;32.00;40.60;;;;;;5072704;28;20086;-72
2023/06/10 12:30:32;;;;;;;4.13;1.90;;;32.10;42.10;;;;;;5072628;28;20036;-72
2023/06/10 12:32:58;;;;;;;3.30;1.90;;;32.30;41.00;;;;;;5072743;28;20079;-72
2023/06/10 12:35:25;;;;;;;5.30;2.03;;;32.30;40.10;;;;;;5055941;28;20032;-72
2023/06/10 12:38:07;;;;;;;5.85;2.28;;;32.30;40.20;;;;;;5072472;28;20544;-71
2023/06/10 12:40:36;;;;;;;3.95;2.00;;;32.30;40.10;;;;;;5072447;28;20040;-72
2023/06/10 12:43:02;;;;;;;6.65;2.15;;;32.30;40.80;;;;;;5072331;28;20071;-72
2023/06/10 12:45:29;;;;;;;5.63;2.10;;;32.30;39.90;;;;;;5072355;28;20040;-72